Time;durP1;ratioP1;P1;durP2;ratioP2;P2;SDS_P1;SDS_P2;PMS_P1;PMS_P2;Temp;Humidity;BMP_temperature;BMP_pressure;BME280_temperature;BME280_humidity;BME280_pressure;Samples;Min_cycle;Max_cycle;Signal;HPM_P1;HPM_P2
2021/06/18 00:01:12;;;;;;;;;;;;;;;30.65;59.75;101011.09;5076837;27;66762;-34
2021/06/18 00:03:42;;;;;;;;;;;;;;;30.67;60.92;101005.47;5082309;27;70166;-34
2021/06/18 00:06:12;;;;;;;;;;;;;;;30.71;60.15;101014.81;5084695;27;64885;-35
2021/06/18 00:08:43;;;;;;;;;;;;;;;30.70;60.83;101023.97;5102251;27;69171;-34
2021/06/18 00:11:13;;;;;;;;;;;;;;;30.66;60.41;101020.88;5087683;27;67025;-34
2021/06/18 00:13:43;;;;;;;;;;;;;;;30.64;61.30;101022.97;5078194;27;70143;-34
2021/06/18 00:16:13;;;;;;;;;;;;;;;30.62;61.91;101019.66;5091069;27;66956;-34
2021/06/18 00:18:43;;;;;;;;;;;;;;;30.61;61.79;101023.41;5083396;27;70546;-34
2021/06/18 00:21:13;;;;;;;;;;;;;;;30.61;61.62;101023.41;5081479;27;66424;-33
2021/06/18 00:23:43;;;;;;;;;;;;;;;30.63;61.61;101021.31;5086592;27;69923;-33
2021/06/18 00:26:16;;;;;;;;;;;;;;;30.68;62.02;101023.38;5096035;27;65315;-39
2021/06/18 00:28:46;;;;;;;;;;;;;;;30.71;62.44;101029.19;5085948;27;70431;-37
2021/06/18 00:31:16;;;;;;;;;;;;;;;30.58;62.81;101007.59;5094773;27;65991;-34
2021/06/18 00:33:46;;;;;;;;;;;;;;;30.81;61.87;101033.34;5076546;27;68441;-33
2021/06/18 00:36:16;;;;;;;;;;;;;;;30.88;62.19;101034.97;5086652;27;65361;-34
2021/06/18 00:38:46;;;;;;;;;;;;;;;30.97;61.92;101032.00;5087785;27;69884;-34
2021/06/18 00:41:16;;;;;;;;;;;;;;;31.03;61.78;101031.97;5086392;27;64660;-34
2021/06/18 00:43:46;;;;;;;;;;;;;;;31.10;61.68;101031.94;5085848;27;69853;-33
2021/06/18 00:46:16;;;;;;;;;;;;;;;31.14;61.32;101031.25;5086615;27;65242;-33
2021/06/18 00:48:47;;;;;;;;;;;;;;;31.20;61.02;101043.09;5086640;27;69383;-33
2021/06/18 00:51:18;;;;;;;;;;;;;;;31.23;61.20;101037.28;5068402;27;65337;-33
2021/06/18 00:53:49;;;;;;;;;;;;;;;31.27;61.26;101043.06;5082214;27;69909;-34
2021/06/18 00:56:19;;;;;;;;;;;;;;;31.29;60.98;101035.56;5091263;27;66182;-35
2021/06/18 00:58:49;;;;;;;;;;;;;;;31.32;60.88;101035.13;5083184;27;70113;-37
2021/06/18 01:01:19;;;;;;;;;;;;;;;31.36;61.06;101045.31;5092851;27;65352;-34
2021/06/18 01:03:49;;;;;;;;;;;;;;;31.38;60.72;101050.53;5081125;27;70183;-36
2021/06/18 01:06:26;;;;;;;;;;;;;;;31.42;61.42;101059.03;5083002;27;66102;-34
2021/06/18 01:09:00;;;;;;;;;;;;;;;31.44;60.84;101059.66;5078532;27;70461;-34
2021/06/18 01:11:35;;;;;;;;;;;;;;;31.47;60.72;101054.63;5081649;27;65574;-32
2021/06/18 01:14:11;;;;;;;;;;;;;;;31.49;60.85;101055.25;5085700;27;70027;-34
2021/06/18 01:17:02;;;;;;;;;;;;;;;31.52;61.18;101057.50;5087296;27;65921;-33
2021/06/18 01:19:58;;;;;;;;;;;;;;;31.56;61.18;101052.47;5080495;27;69865;-36
2021/06/18 01:22:29;;;;;;;;;;;;;;;31.56;61.05;101058.72;5066178;27;65522;-34
2021/06/18 01:25:18;;;;;;;;;;;;;;;31.59;60.73;101058.31;5078464;27;71058;-33
2021/06/18 01:27:56;;;;;;;;;;;;;;;31.63;60.45;101052.44;5088078;27;65972;-33
2021/06/18 01:30:27;;;;;;;;;;;;;;;31.63;60.50;101047.84;5079972;27;70197;-32
2021/06/18 01:33:03;;;;;;;;;;;;;;;31.65;60.79;101051.16;5081297;27;67752;-33
2021/06/18 01:35:45;;;;;;;;;;;;;;;31.67;60.75;101045.50;5086397;27;69731;-34
2021/06/18 01:38:16;;;;;;;;;;;;;;;31.70;60.61;101053.19;5083025;27;65804;-32
2021/06/18 01:40:50;;;;;;;;;;;;;;;31.73;60.42;101041.91;5082874;27;70003;-33
2021/06/18 01:43:21;;;;;;;;;;;;;;;31.75;60.02;101045.22;5083501;27;65267;-33
2021/06/18 01:45:53;;;;;;;;;;;;;;;31.75;60.30;101046.03;5085764;27;69827;-33
2021/06/18 01:48:24;;;;;;;;;;;;;;;31.77;60.08;101053.97;5080418;27;65174;-33
2021/06/18 01:50:55;;;;;;;;;;;;;;;31.78;60.84;101055.63;5080507;27;68970;-33
2021/06/18 01:53:26;;;;;;;;;;;;;;;31.80;60.46;101061.66;5089316;27;66472;-33
2021/06/18 01:55:56;;;;;;;;;;;;;;;31.81;60.47;101060.59;5087357;27;70383;-34
2021/06/18 01:58:26;;;;;;;;;;;;;;;31.83;60.36;101070.19;5090912;27;66670;-33
2021/06/18 02:00:58;;;;;;;;;;;;;;;31.87;60.08;101069.72;5079691;27;69077;-34
2021/06/18 02:03:29;;;;;;;;;;;;;;;31.88;60.34;101069.53;5089199;27;66608;-33
2021/06/18 02:06:03;;;;;;;;;;;;;;;31.89;60.15;101073.06;5089639;27;68614;-34
2021/06/18 02:08:34;;;;;;;;;;;;;;;31.89;60.33;101071.16;5081689;27;66441;-34
2021/06/18 02:11:04;;;;;;;;;;;;;;;31.91;60.11;101070.97;5091927;27;70143;-33
2021/06/18 02:13:34;;;;;;;;;;;;;;;31.93;60.03;101067.00;5084147;27;65295;-29
2021/06/18 02:16:06;;;;;;;;;;;;;;;31.97;60.10;101059.25;5080416;27;69999;-35
2021/06/18 02:18:37;;;;;;;;;;;;;;;31.96;60.48;101068.44;5084719;27;66336;-33
2021/06/18 02:21:07;;;;;;;;;;;;;;;31.97;59.92;101065.50;5081843;27;69379;-33
2021/06/18 02:23:37;;;;;;;;;;;;;;;31.99;60.31;101062.56;5085789;27;66325;-32
2021/06/18 02:26:08;;;;;;;;;;;;;;;32.00;60.32;101059.63;5093555;27;69901;-32
2021/06/18 02:28:38;;;;;;;;;;;;;;;32.03;60.16;101059.16;5091503;27;66554;-34
2021/06/18 02:31:11;;;;;;;;;;;;;;;32.05;59.73;101062.50;5079373;27;70797;-33
2021/06/18 02:33:42;;;;;;;;;;;;;;;32.09;59.95;101062.03;5083425;27;65601;-33
2021/06/18 02:36:13;;;;;;;;;;;;;;;32.11;59.94;101070.78;5090491;27;70220;-34
2021/06/18 02:38:45;;;;;;;;;;;;;;;32.15;59.51;101072.00;5089773;27;66654;-33
2021/06/18 02:41:15;;;;;;;;;;;;;;;32.17;59.54;101065.28;5090307;27;69771;-32
2021/06/18 02:43:45;;;;;;;;;;;;;;;32.19;59.76;101073.22;5087639;27;66184;-34
2021/06/18 02:46:24;;;;;;;;;;;;;;;32.22;59.26;101083.63;5079844;27;70317;-33
2021/06/18 02:48:58;;;;;;;;;;;;;;;32.25;59.62;101067.72;5080168;27;66017;-33
2021/06/18 02:52:06;;;;;;;;;;;;;;;32.28;59.36;101067.25;5084639;27;69064;-33
2021/06/18 02:54:59;;;;;;;;;;;;;;;32.31;59.15;101065.16;5063533;27;65278;-33
2021/06/18 02:57:30;;;;;;;;;;;;;;;32.33;58.81;101053.00;5060527;28;71094;-33
2021/06/18 03:00:04;;;;;;;;;;;;;;;32.38;59.01;101064.03;5081176;27;66105;-34
2021/06/18 03:02:46;;;;;;;;;;;;;;;32.40;58.85;101063.78;5079442;27;69786;-34
2021/06/18 03:05:18;;;;;;;;;;;;;;;32.42;58.71;101057.06;5081820;27;65482;-33
2021/06/18 03:07:54;;;;;;;;;;;;;;;32.45;58.61;101062.03;5084361;27;69771;-34
2021/06/18 03:10:26;;;;;;;;;;;;;;;32.47;58.10;101059.97;5095456;27;65403;-33
2021/06/18 03:13:01;;;;;;;;;;;;;;;32.52;58.60;101055.75;5076633;27;69617;-33
2021/06/18 03:15:35;;;;;;;;;;;;;;;32.52;58.68;101051.16;5079490;27;66188;-33
2021/06/18 03:18:07;;;;;;;;;;;;;;;32.55;58.33;101050.69;5083853;27;70900;-34
2021/06/18 03:20:37;;;;;;;;;;;;;;;32.57;58.16;101045.03;5081473;27;65993;-34
2021/06/18 03:23:09;;;;;;;;;;;;;;;32.59;58.32;101038.31;5083570;27;69122;-34
2021/06/18 03:25:43;;;;;;;;;;;;;;;32.60;57.87;101036.44;5075948;27;65952;-34
2021/06/18 03:28:14;;;;;;;;;;;;;;;32.62;58.15;101026.16;5080322;27;69834;-33
2021/06/18 03:30:48;;;;;;;;;;;;;;;32.64;58.07;101037.63;5078653;27;65343;-33
2021/06/18 03:33:19;;;;;;;;;;;;;;;32.65;57.96;101028.41;5075528;27;70193;-33
2021/06/18 03:35:54;;;;;;;;;;;;;;;32.68;57.92;101027.97;5080372;27;66793;-33
2021/06/18 03:38:24;;;;;;;;;;;;;;;32.62;57.90;101012.59;5081588;27;68824;-34
2021/06/18 03:40:55;;;;;;;;;;;;;;;32.71;58.02;101022.09;5079141;27;66462;-34
2021/06/18 03:43:26;;;;;;;;;;;;;;;32.72;57.53;101012.88;5081693;27;69803;-33
2021/06/18 03:46:00;;;;;;;;;;;;;;;32.75;58.29;101012.41;5085706;27;66255;-35
2021/06/18 03:48:32;;;;;;;;;;;;;;;32.80;57.94;101007.13;5085253;27;69834;-32
2021/06/18 03:51:02;;;;;;;;;;;;;;;32.82;57.85;100996.88;5081614;27;67216;-34
2021/06/18 03:53:33;;;;;;;;;;;;;;;32.85;57.64;100990.13;5089575;27;69238;-35
2021/06/18 03:56:05;;;;;;;;;;;;;;;32.86;57.52;101003.47;5086536;27;65426;-34
2021/06/18 03:58:36;;;;;;;;;;;;;;;32.88;57.56;101012.22;5078914;27;70135;-34
2021/06/18 04:01:06;;;;;;;;;;;;;;;32.90;57.53;101014.69;5083777;27;66201;-34
2021/06/18 04:03:37;;;;;;;;;;;;;;;32.94;57.44;101015.91;5084521;27;69354;-36
2021/06/18 04:06:09;;;;;;;;;;;;;;;32.97;57.58;101009.19;5084040;27;67270;-32
2021/06/18 04:08:41;;;;;;;;;;;;;;;32.99;57.41;101015.19;5080394;27;70057;-33
2021/06/18 04:11:11;;;;;;;;;;;;;;;33.01;57.43;101011.22;5080718;27;66115;-34
2021/06/18 04:13:42;;;;;;;;;;;;;;;33.04;57.27;100993.63;5084851;27;69750;-33
2021/06/18 04:16:12;;;;;;;;;;;;;;;33.08;57.45;101003.81;5085675;27;65470;-32
2021/06/18 04:18:44;;;;;;;;;;;;;;;33.09;57.13;100996.47;5092055;27;69806;-34
2021/06/18 04:21:19;;;;;;;;;;;;;;;33.10;57.37;101001.69;5088031;27;66128;-34
2021/06/18 04:23:49;;;;;;;;;;;;;;;33.12;57.16;100988.69;5096837;27;70366;-33
2021/06/18 04:26:20;;;;;;;;;;;;;;;33.15;57.17;100988.25;5095345;27;66035;-34
2021/06/18 04:28:51;;;;;;;;;;;;;;;33.16;57.22;100986.34;5091296;27;69898;-34
2021/06/18 04:31:22;;;;;;;;;;;;;;;33.19;57.17;100980.44;5089142;27;66923;-33
2021/06/18 04:33:52;;;;;;;;;;;;;;;33.21;57.07;100972.88;5090399;27;69762;-33
2021/06/18 04:36:23;;;;;;;;;;;;;;;33.22;57.10;100977.25;5080355;27;66088;-34
2021/06/18 04:38:54;;;;;;;;;;;;;;;33.24;57.02;100977.84;5092788;27;70027;-34
2021/06/18 04:41:26;;;;;;;;;;;;;;;33.27;57.00;100977.38;5088957;27;66940;-34
2021/06/18 04:43:56;;;;;;;;;;;;;;;33.28;56.94;100978.19;5086589;27;69808;-33
2021/06/18 04:46:27;;;;;;;;;;;;;;;33.31;56.95;100972.28;5082275;27;65951;-34
2021/06/18 04:48:57;;;;;;;;;;;;;;;33.32;57.09;100971.22;5088379;27;70710;-33
2021/06/18 04:51:27;;;;;;;;;;;;;;;33.34;56.95;100978.09;5078678;27;67166;-34
2021/06/18 04:53:57;;;;;;;;;;;;;;;33.37;56.76;100969.44;5083972;27;68991;-34
2021/06/18 04:56:28;;;;;;;;;;;;;;;33.41;56.77;100966.28;5078781;27;66893;-33
2021/06/18 04:58:59;;;;;;;;;;;;;;;33.40;56.72;100960.00;5089772;27;69961;-33
2021/06/18 05:01:29;;;;;;;;;;;;;;;33.42;56.69;100952.44;5082064;27;66376;-33
2021/06/18 05:04:00;;;;;;;;;;;;;;;33.43;56.67;100951.38;5084153;27;70271;-33
2021/06/18 05:06:31;;;;;;;;;;;;;;;33.44;56.50;100950.31;5077880;27;65542;-34
2021/06/18 05:09:05;;;;;;;;;;;;;;;33.47;56.72;100940.88;5079505;27;69342;-34
2021/06/18 05:11:35;;;;;;;;;;;;;;;33.47;56.48;100940.88;5090383;27;65509;-34
2021/06/18 05:14:08;;;;;;;;;;;;;;;33.48;56.50;100931.63;5086076;27;70349;-34
2021/06/18 05:16:39;;;;;;;;;;;;;;;33.49;56.65;100923.25;5079234;27;66361;-33
2021/06/18 05:19:13;;;;;;;;;;;;;;;33.50;56.33;100908.56;5089362;27;70375;-34
2021/06/18 05:21:43;;;;;;;;;;;;;;;33.52;56.30;100909.19;5085272;27;66249;-34
2021/06/18 05:24:13;;;;;;;;;;;;;;;33.54;56.22;100906.22;5078826;27;69934;-33
2021/06/18 05:26:44;;;;;;;;;;;;;;;33.57;56.08;100905.75;5084365;27;67165;-33
2021/06/18 05:29:15;;;;;;;;;;;;;;;33.58;55.76;100897.38;5086633;27;69775;-34
2021/06/18 05:31:45;;;;;;;;;;;;;;;33.63;55.58;100888.50;5083676;27;66336;-34
2021/06/18 05:34:16;;;;;;;;;;;;;;;33.63;55.29;100891.22;5081856;27;69870;-33
2021/06/18 05:36:46;;;;;;;;;;;;;;;33.66;55.17;100871.69;5095396;27;65642;-33
2021/06/18 05:39:16;;;;;;;;;;;;;;;33.67;55.18;100857.03;5080089;27;68005;-34
2021/06/18 05:41:47;;;;;;;;;;;;;;;33.71;54.89;100858.22;5078557;27;66889;-34
2021/06/18 05:44:21;;;;;;;;;;;;;;;33.72;54.79;100854.41;5086874;27;69817;-33
2021/06/18 05:46:51;;;;;;;;;;;;;;;33.72;54.97;100848.97;5082166;27;65950;-33
2021/06/18 05:49:22;;;;;;;;;;;;;;;33.73;54.90;100839.72;5080564;27;69848;-34
2021/06/18 05:51:52;;;;;;;;;;;;;;;33.72;54.88;100831.81;5080557;27;65761;-34
2021/06/18 05:54:25;;;;;;;;;;;;;;;33.75;54.95;100826.72;5082985;27;69863;-34
2021/06/18 05:56:55;;;;;;;;;;;;;;;33.77;54.82;100819.16;5078899;27;65638;-33
2021/06/18 05:59:25;;;;;;;;;;;;;;;33.79;54.82;100810.72;5081357;27;69041;-34
2021/06/18 06:01:56;;;;;;;;;;;;;;;33.79;54.79;100810.72;5085755;27;66459;-34
2021/06/18 06:04:26;;;;;;;;;;;;;;;33.83;54.91;100811.91;5084623;27;69854;-32
2021/06/18 06:06:57;;;;;;;;;;;;;;;33.86;54.61;100805.16;5082833;27;42884;-33
2021/06/18 06:09:44;;;;;;;;;;;;;;;33.85;55.05;100809.78;5076343;27;69395;-34
2021/06/18 06:12:14;;;;;;;;;;;;;;;33.90;54.79;100792.72;5069962;28;66724;-32
2021/06/18 06:14:49;;;;;;;;;;;;;;;33.91;54.86;100780.78;5087796;27;70247;-34
2021/06/18 06:17:19;;;;;;;;;;;;;;;33.93;54.57;100784.06;5092809;27;66288;-34
2021/06/18 06:19:50;;;;;;;;;;;;;;;33.93;54.82;100776.72;5089926;27;70095;-33
2021/06/18 06:22:20;;;;;;;;;;;;;;;33.95;54.45;100776.47;5079828;27;65514;-34
2021/06/18 06:24:51;;;;;;;;;;;;;;;33.95;54.87;100779.22;5079342;27;68962;-34
2021/06/18 06:27:21;;;;;;;;;;;;;;;33.95;54.86;100776.47;5080988;27;65348;-34
2021/06/18 06:29:53;;;;;;;;;;;;;;;33.96;54.72;100767.25;5080400;27;71206;-34
2021/06/18 06:32:26;;;;;;;;;;;;;;;33.97;54.68;100758.03;5088773;27;65435;-33
2021/06/18 06:34:57;;;;;;;;;;;;;;;33.96;54.77;100759.06;5077431;27;71013;-34
2021/06/18 06:37:30;;;;;;;;;;;;;;;33.96;54.71;100751.75;5079913;27;66346;-33
2021/06/18 06:40:01;;;;;;;;;;;;;;;33.97;54.73;100749.88;5075601;27;70181;-34
2021/06/18 06:42:32;;;;;;;;;;;;;;;33.97;54.49;100752.59;5077740;27;65536;-33
2021/06/18 06:45:03;;;;;;;;;;;;;;;33.97;54.79;100747.13;5090798;27;69369;-34
2021/06/18 06:47:34;;;;;;;;;;;;;;;33.97;54.86;100741.69;5080923;27;65159;-36
2021/06/18 06:50:05;;;;;;;;;;;;;;;33.98;54.74;100735.19;5080717;27;70527;-32
2021/06/18 06:52:35;;;;;;;;;;;;;;;33.97;54.82;100730.81;5079105;27;65352;-33
2021/06/18 06:55:06;;;;;;;;;;;;;;;33.99;54.58;100723.22;5102624;27;69894;-34
2021/06/18 06:57:36;;;;;;;;;;;;;;;34.00;54.85;100727.59;5081682;27;66759;-33
2021/06/18 07:00:08;;;;;;;;;;;;;;;34.04;54.63;100726.03;5083193;27;69761;-33
2021/06/18 07:02:38;;;;;;;;;;;;;;;34.08;54.80;100727.22;5078989;27;66292;-32
2021/06/18 07:05:10;;;;;;;;;;;;;;;34.08;54.70;100729.94;5082550;27;70387;-34
2021/06/18 07:07:41;;;;;;;;;;;;;;;34.13;54.91;100716.44;5082184;27;66026;-33
2021/06/18 07:10:11;;;;;;;;;;;;;;;34.18;54.85;100708.31;5078375;27;70490;-34
2021/06/18 07:12:43;;;;;;;;;;;;;;;34.22;54.99;100706.78;5079068;27;66726;-36
2021/06/18 07:15:15;;;;;;;;;;;;;;;34.25;54.87;100706.28;5091723;27;70027;-34
2021/06/18 07:17:45;;;;;;;;;;;;;;;34.29;54.73;100703.06;5089511;27;66317;-34
2021/06/18 07:20:16;;;;;;;;;;;;;;;34.33;54.68;100696.88;5076781;27;70727;-33
2021/06/18 07:22:47;;;;;;;;;;;;;;;34.35;54.68;100688.44;5083955;27;66387;-33
2021/06/18 07:25:17;;;;;;;;;;;;;;;34.38;54.30;100682.50;5077087;27;69307;-35
2021/06/18 07:27:48;;;;;;;;;;;;;;;34.40;54.18;100677.63;5087850;27;65580;-34
2021/06/18 07:30:19;;;;;;;;;;;;;;;34.41;54.40;100674.69;5072078;27;70218;-36
2021/06/18 07:32:56;;;;;;;;;;;;;;;34.43;54.28;100668.97;5081511;27;66243;-33
2021/06/18 07:35:28;;;;;;;;;;;;;;;34.45;54.34;100669.53;5091390;27;70006;-34
2021/06/18 07:37:59;;;;;;;;;;;;;;;34.49;54.37;100667.94;5091659;27;65568;-33
2021/06/18 07:40:30;;;;;;;;;;;;;;;34.52;54.13;100667.47;5084609;27;68878;-34
2021/06/18 07:43:01;;;;;;;;;;;;;;;34.53;53.89;100663.66;5069378;27;67750;-33
2021/06/18 07:45:32;;;;;;;;;;;;;;;34.53;53.96;100666.41;5083744;27;69684;-34
2021/06/18 07:48:08;;;;;;;;;;;;;;;34.52;53.75;100672.94;5086523;27;66612;-35
2021/06/18 07:50:40;;;;;;;;;;;;;;;34.51;54.02;100660.38;5084305;27;69963;-35
2021/06/18 07:53:12;;;;;;;;;;;;;;;34.52;54.11;100664.75;5085785;27;66744;-34
2021/06/18 07:55:43;;;;;;;;;;;;;;;34.54;53.89;100657.13;5090559;27;70018;-33
2021/06/18 07:58:16;;;;;;;;;;;;;;;34.55;53.74;100656.09;5085248;27;65625;-33
2021/06/18 08:00:48;;;;;;;;;;;;;;;34.55;54.04;100661.53;5087542;27;69302;-34
2021/06/18 08:03:19;;;;;;;;;;;;;;;34.56;53.69;100652.31;5080897;27;66126;-35
2021/06/18 08:05:50;;;;;;;;;;;;;;;34.56;54.09;100655.03;5081111;27;69930;-35
2021/06/18 08:08:22;;;;;;;;;;;;;;;34.57;53.85;100648.50;5082889;27;67151;-33
2021/06/18 08:10:53;;;;;;;;;;;;;;;34.57;53.97;100643.03;5089692;27;69966;-34
2021/06/18 08:13:24;;;;;;;;;;;;;;;34.57;53.78;100640.31;5087464;27;66761;-34
2021/06/18 08:15:55;;;;;;;;;;;;;;;34.58;53.93;100635.72;5085125;27;70212;-36
2021/06/18 08:18:25;;;;;;;;;;;;;;;34.56;53.64;100635.97;5074269;27;66194;-33
2021/06/18 08:20:55;;;;;;;;;;;;;;;34.58;53.62;100625.66;5083483;27;69991;-33
2021/06/18 08:23:27;;;;;;;;;;;;;;;34.60;53.71;100637.13;5088494;27;65326;-34
2021/06/18 08:25:57;;;;;;;;;;;;;;;34.60;53.83;100628.94;5083719;27;69069;-35
2021/06/18 08:28:29;;;;;;;;;;;;;;;34.60;53.55;100628.09;5081823;27;66271;-34
2021/06/18 08:30:59;;;;;;;;;;;;;;;34.61;53.88;100638.75;5085021;27;68969;-35
2021/06/18 08:33:34;;;;;;;;;;;;;;;34.61;53.82;100638.75;5088776;27;66242;-36
2021/06/18 08:36:04;;;;;;;;;;;;;;;34.62;53.51;100645.03;5077770;27;69766;-38
2021/06/18 08:38:35;;;;;;;;;;;;;;;34.62;53.63;100645.84;5080497;27;65531;-34
2021/06/18 08:41:07;;;;;;;;;;;;;;;34.62;53.75;100651.28;5082589;27;69466;-34
2021/06/18 08:43:39;;;;;;;;;;;;;;;34.64;53.54;100653.78;5078936;27;65704;-34
2021/06/18 08:46:10;;;;;;;;;;;;;;;34.64;53.48;100653.78;5080940;27;69957;-33
2021/06/18 08:48:40;;;;;;;;;;;;;;;34.65;53.51;100645.34;5078066;27;65543;-33
2021/06/18 08:51:11;;;;;;;;;;;;;;;34.64;53.70;100649.16;5084106;27;69918;-34
2021/06/18 08:53:42;;;;;;;;;;;;;;;34.65;53.35;100653.50;5079127;27;65469;-33
2021/06/18 08:56:14;;;;;;;;;;;;;;;34.66;53.56;100657.09;5099736;27;70400;-33
2021/06/18 08:58:44;;;;;;;;;;;;;;;34.66;53.52;100657.91;5080777;27;65421;-33
2021/06/18 09:01:14;;;;;;;;;;;;;;;34.66;53.67;100668.81;5096803;27;69805;-33
2021/06/18 09:03:48;;;;;;;;;;;;;;;34.66;53.19;100676.97;5082369;27;67460;-34
2021/06/18 09:06:19;;;;;;;;;;;;;;;34.67;53.59;100675.88;5078399;27;70055;-33
2021/06/18 09:09:08;;;;;;;;;;;;;;;34.68;53.25;100682.97;5079376;27;67100;-33
2021/06/18 09:11:39;;;;;;;;;;;;;;;34.67;53.21;100684.06;5085048;27;69479;-35
2021/06/18 09:14:18;;;;;;;;;;;;;;;34.68;53.21;100688.41;5084279;27;64991;-36
2021/06/18 09:17:04;;;;;;;;;;;;;;;34.68;53.17;100682.97;5086835;27;69099;-34
2021/06/18 09:19:37;;;;;;;;;;;;;;;34.69;53.50;100679.19;5091610;27;66781;-34
2021/06/18 09:22:08;;;;;;;;;;;;;;;34.69;53.25;100681.91;5084744;27;70546;-37
2021/06/18 09:24:58;;;;;;;;;;;;;;;34.70;53.02;100682.72;5075564;27;65503;-33
2021/06/18 09:27:36;;;;;;;;;;;;;;;34.69;53.44;100683.81;5087105;27;70082;-34
2021/06/18 09:30:32;;;;;;;;;;;;;;;34.69;53.48;100681.91;5093017;27;65906;-33
2021/06/18 09:33:03;;;;;;;;;;;;;;;34.68;53.00;100688.41;5098227;27;69609;-32
2021/06/18 09:35:34;;;;;;;;;;;;;;;34.68;53.43;100680.25;5083423;27;65611;-34
2021/06/18 09:38:05;;;;;;;;;;;;;;;34.68;53.50;100680.25;5102475;27;70432;-33
2021/06/18 09:40:36;;;;;;;;;;;;;;;34.70;53.29;100685.47;5080925;27;65358;-34
2021/06/18 09:43:14;;;;;;;;;;;;;;;34.69;53.16;100683.81;5091379;27;69331;-33
2021/06/18 09:45:47;;;;;;;;;;;;;;;34.68;52.98;100688.41;5083618;27;66219;-35
2021/06/18 09:48:23;;;;;;;;;;;;;;;34.68;52.96;100682.97;5077359;27;69567;-33
2021/06/18 09:50:59;;;;;;;;;;;;;;;34.67;53.01;100681.34;5079523;27;66504;-34
2021/06/18 09:53:31;;;;;;;;;;;;;;;34.67;52.75;100686.78;5085702;27;70057;-33
2021/06/18 09:56:10;;;;;;;;;;;;;;;34.65;53.15;100678.03;5078734;27;66467;-38
2021/06/18 09:58:41;;;;;;;;;;;;;;;34.64;53.05;100679.13;5092901;27;68979;-34
2021/06/18 10:01:32;;;;;;;;;;;;;;;34.65;53.00;100688.09;5099907;27;65380;-36
2021/06/18 10:04:04;;;;;;;;;;;;;;;34.65;52.90;100688.94;5090109;27;69871;-39
2021/06/18 10:06:35;;;;;;;;;;;;;;;34.64;52.90;100686.47;5076027;27;66160;-36
2021/06/18 10:09:07;;;;;;;;;;;;;;;34.63;53.01;100696.56;5093706;27;68895;-35
2021/06/18 10:11:40;;;;;;;;;;;;;;;34.63;52.88;100699.28;5085244;27;66339;-34
2021/06/18 10:14:10;;;;;;;;;;;;;;;34.60;52.95;100705.22;5084662;27;70423;-33
2021/06/18 10:16:41;;;;;;;;;;;;;;;34.60;52.69;100707.94;5080617;27;65674;-34
2021/06/18 10:19:12;;;;;;;;;;;;;;;34.59;52.99;100711.72;5091847;27;70837;-36
2021/06/18 10:21:52;;;;;;;;;;;;;;;34.59;53.06;100714.44;5077628;27;65383;-35
2021/06/18 10:24:25;;;;;;;;;;;;;;;34.59;52.93;100719.91;5092172;27;69389;-36
2021/06/18 10:26:56;;;;;;;;;;;;;;;34.58;52.79;100710.09;5089102;27;65912;-38
2021/06/18 10:29:38;;;;;;;;;;;;;;;34.58;52.89;100720.97;5088899;27;70821;-37
2021/06/18 10:32:27;;;;;;;;;;;;;;;34.57;53.11;100722.03;5094156;27;66729;-36
2021/06/18 10:34:58;;;;;;;;;;;;;;;34.57;52.98;100718.50;5087196;27;70205;-35
2021/06/18 10:37:34;;;;;;;;;;;;;;;34.55;53.22;100720.59;5074182;27;65456;-34
2021/06/18 10:40:09;;;;;;;;;;;;;;;34.54;53.17;100738.03;5075930;27;70128;-35
2021/06/18 10:42:58;;;;;;;;;;;;;;;34.53;53.24;100739.13;5095454;27;66405;-37
2021/06/18 10:45:48;;;;;;;;;;;;;;;34.52;53.12;100743.75;5066146;27;70863;-33
2021/06/18 10:48:18;;;;;;;;;;;;;;;34.51;53.43;100747.53;5077242;27;66280;-34
2021/06/18 10:50:49;;;;;;;;;;;;;;;34.50;53.43;100740.44;5078569;27;69906;-35
2021/06/18 10:53:20;;;;;;;;;;;;;;;34.46;53.55;100737.41;5088353;27;66281;-33
2021/06/18 10:55:52;;;;;;;;;;;;;;;34.44;54.44;100744.16;5088957;27;70133;-32
2021/06/18 10:58:23;;;;;;;;;;;;;;;34.45;53.33;100745.78;5081601;27;65568;-32
2021/06/18 11:01:06;;;;;;;;;;;;;;;34.44;54.38;100738.72;5092235;27;69068;-33
2021/06/18 11:03:54;;;;;;;;;;;;;;;34.44;53.74;100749.59;5086442;27;65482;-36
2021/06/18 11:06:45;;;;;;;;;;;;;;;34.43;53.19;100756.94;5079606;27;70160;-32
2021/06/18 11:09:33;;;;;;;;;;;;;;;34.42;54.87;100754.47;5078511;27;65489;-32
2021/06/18 11:12:21;;;;;;;;;;;;;;;34.43;53.05;100756.09;5085449;27;69134;-34
2021/06/18 11:14:53;;;;;;;;;;;;;;;34.42;54.99;100757.19;5084835;27;66160;-33
2021/06/18 11:17:46;;;;;;;;;;;;;;;34.42;54.18;100759.91;5089066;27;69975;-34
2021/06/18 11:20:17;;;;;;;;;;;;;;;34.42;55.39;100765.34;5093360;27;66418;-34
2021/06/18 11:22:55;;;;;;;;;;;;;;;34.41;55.80;100769.16;5089307;27;70049;-32
2021/06/18 11:25:41;;;;;;;;;;;;;;;34.40;55.83;100767.50;5088050;27;65192;-33
2021/06/18 11:28:20;;;;;;;;;;;;;;;34.39;55.72;100776.75;5080338;27;69218;-33
2021/06/18 11:30:53;;;;;;;;;;;;;;;34.41;55.81;100785.50;5078820;27;66173;-32
2021/06/18 11:33:43;;;;;;;;;;;;;;;34.39;55.88;100793.09;5089904;27;70053;-38
2021/06/18 11:36:17;;;;;;;;;;;;;;;34.40;56.96;100800.19;5094623;27;66124;-35
2021/06/18 11:38:48;;;;;;;;;;;;;;;34.20;57.14;100779.69;5087976;27;69781;-34
2021/06/18 11:41:42;;;;;;;;;;;;;;;34.30;57.09;100810.88;5088938;27;64835;-38
2021/06/18 11:44:13;;;;;;;;;;;;;;;34.22;57.74;100804.78;5080050;27;69310;-36
2021/06/18 11:46:44;;;;;;;;;;;;;;;34.16;57.79;100804.94;5085221;27;66431;-34
2021/06/18 11:49:18;;;;;;;;;;;;;;;34.14;57.83;100809.81;5085067;27;69528;-34
2021/06/18 11:52:02;;;;;;;;;;;;;;;34.10;58.17;100809.47;5088412;27;66568;-34
2021/06/18 11:54:36;;;;;;;;;;;;;;;34.03;58.66;100804.13;5082209;27;69743;-35
2021/06/18 11:57:07;;;;;;;;;;;;;;;33.97;57.79;100813.28;5066354;27;66659;-34
2021/06/18 11:59:39;;;;;;;;;;;;;;;33.84;55.29;100808.13;5081867;27;69860;-34
2021/06/18 12:02:30;;;;;;;;;;;;;;;33.51;53.69;100782.41;5091062;27;66296;-35
2021/06/18 12:05:10;;;;;;;;;;;;;;;33.52;52.21;100810.44;5062262;27;69313;-37
2021/06/18 12:07:41;;;;;;;;;;;;;;;33.38;51.36;100820.75;5087883;27;65449;-36
2021/06/18 12:10:21;;;;;;;;;;;;;;;33.26;51.96;100833.53;5073819;27;69046;-37
2021/06/18 12:12:53;;;;;;;;;;;;;;;33.13;50.93;100837.34;5091421;27;65517;-35
2021/06/18 12:15:43;;;;;;;;;;;;;;;33.03;50.21;100837.09;5090525;27;68819;-36
2021/06/18 12:18:15;;;;;;;;;;;;;;;32.89;49.54;100829.13;5085753;27;65934;-35
2021/06/18 12:20:45;;;;;;;;;;;;;;;32.83;48.14;100849.09;5087703;27;69309;-35
2021/06/18 12:23:16;;;;;;;;;;;;;;;32.73;47.75;100856.97;5089515;27;66214;-33
2021/06/18 12:25:50;;;;;;;;;;;;;;;32.65;47.46;100865.47;5090883;27;69721;-35
2021/06/18 12:28:20;;;;;;;;;;;;;;;32.62;48.13;100872.19;5088037;27;66503;-33
2021/06/18 12:30:51;;;;;;;;;;;;;;;32.60;48.52;100878.94;5089927;27;69845;-36
2021/06/18 12:33:22;;;;;;;;;;;;;;;32.52;47.51;100871.94;5090411;27;65347;-35
2021/06/18 12:35:52;;;;;;;;;;;;;;;32.45;48.46;100885.56;5091380;27;70336;-33
2021/06/18 12:38:22;;;;;;;;;;;;;;;32.42;47.38;100894.19;5103273;27;66233;-33
2021/06/18 12:40:52;;;;;;;;;;;;;;;32.33;46.76;100884.69;5087197;27;69560;-33
2021/06/18 12:43:22;;;;;;;;;;;;;;;32.27;46.44;100885.63;5090160;27;66252;-38
2021/06/18 12:45:55;;;;;;;;;;;;;;;32.17;45.10;100897.03;5105559;27;69518;-35
2021/06/18 12:48:29;;;;;;;;;;;;;;;32.08;44.11;100897.56;5086111;27;66190;-37
2021/06/18 12:51:00;;;;;;;;;;;;;;;32.03;45.02;100901.78;5085677;27;69322;-35
2021/06/18 12:53:39;;;;;;;;;;;;;;;31.99;43.85;100902.50;5093208;27;66259;-35
2021/06/18 12:56:16;;;;;;;;;;;;;;;31.90;43.25;100901.09;5083781;27;70005;-34
2021/06/18 12:58:48;;;;;;;;;;;;;;;31.85;43.79;100909.09;5087744;27;66031;-33
2021/06/18 13:01:26;;;;;;;;;;;;;;;31.80;46.67;100909.78;5087530;27;70048;-37
2021/06/18 13:04:06;;;;;;;;;;;;;;;31.76;46.12;100911.25;5087195;27;65380;-39
2021/06/18 13:06:40;;;;;;;;;;;;;;;31.78;46.69;100917.28;5084099;27;70209;-44